Time;durP1;ratioP1;P1;durP2;ratioP2;P2;SDS_P1;SDS_P2;PMS_P1;PMS_P2;Temp;Humidity;BMP_temperature;BMP_pressure;BME280_temperature;BME280_humidity;BME280_pressure;Samples;Min_cycle;Max_cycle;Signal;HPM_P1;HPM_P2
2020/12/10 00:01:37;;;;;;;18.37;13.70;;;2.40;99.90;;;;;;5042439;28;20637;-84
2020/12/10 00:04:03;;;;;;;22.73;16.40;;;2.40;99.90;;;;;;5062414;28;20555;-83
2020/12/10 00:06:29;;;;;;;15.15;11.18;;;2.30;99.90;;;;;;5066748;28;20581;-84
2020/12/10 00:08:55;;;;;;;15.00;11.02;;;2.30;99.90;;;;;;5084603;28;20172;-84
2020/12/10 00:11:21;;;;;;;16.13;12.60;;;2.30;99.90;;;;;;5067782;28;20214;-84
2020/12/10 00:13:46;;;;;;;21.80;13.87;;;2.30;99.90;;;;;;5066503;28;20578;-83
2020/12/10 00:16:12;;;;;;;17.03;13.47;;;2.30;99.90;;;;;;5068129;28;20240;-84
2020/12/10 00:18:39;;;;;;;16.30;12.37;;;2.30;99.90;;;;;;5083979;28;20652;-84
2020/12/10 00:21:06;;;;;;;17.73;13.40;;;2.30;99.90;;;;;;5045278;28;20634;-80
2020/12/10 00:23:32;;;;;;;16.02;12.13;;;2.40;99.90;;;;;;5060694;28;20175;-79
2020/12/10 00:25:58;;;;;;;15.97;12.07;;;2.50;99.90;;;;;;5039753;28;20259;-79
2020/12/10 00:28:23;;;;;;;19.47;14.47;;;2.50;99.90;;;;;;5070773;28;20575;-79
2020/12/10 00:30:49;;;;;;;14.37;10.97;;;2.50;99.90;;;;;;5073150;28;20188;-79
2020/12/10 00:33:15;;;;;;;14.20;10.93;;;2.60;99.90;;;;;;5072870;28;20653;-78
2020/12/10 00:35:41;;;;;;;15.07;10.47;;;2.60;99.90;;;;;;5073184;28;20211;-79
2020/12/10 00:38:06;;;;;;;19.53;14.07;;;2.60;99.90;;;;;;5071107;28;20606;-79
2020/12/10 00:40:32;;;;;;;14.97;10.23;;;2.60;99.90;;;;;;5054503;28;20598;-80
2020/12/10 00:42:58;;;;;;;16.57;11.70;;;2.60;99.90;;;;;;5071352;28;20211;-79
2020/12/10 00:45:23;;;;;;;20.40;12.47;;;2.60;99.90;;;;;;5054429;28;20172;-80
2020/12/10 00:47:51;;;;;;;14.23;11.67;;;2.60;99.90;;;;;;5071174;28;20172;-79
2020/12/10 00:50:17;;;;;;;17.73;12.35;;;2.60;99.90;;;;;;5036999;28;20270;-79
2020/12/10 00:52:43;;;;;;;17.00;12.02;;;2.60;99.90;;;;;;5053753;28;20168;-79
2020/12/10 00:55:12;;;;;;;15.02;11.45;;;2.60;99.90;;;;;;5054555;28;20169;-79
2020/12/10 00:57:41;;;;;;;14.02;10.75;;;2.60;99.90;;;;;;5053774;28;20243;-79
2020/12/10 01:00:08;;;;;;;16.98;11.40;;;2.60;99.90;;;;;;5075335;28;20203;-78
2020/12/10 01:02:34;;;;;;;14.70;10.52;;;2.60;99.90;;;;;;5072323;28;20179;-78
2020/12/10 01:05:00;;;;;;;14.50;11.90;;;2.60;99.90;;;;;;5053469;28;20192;-79
2020/12/10 01:07:26;;;;;;;12.77;9.07;;;2.60;99.90;;;;;;5071574;28;20199;-78
2020/12/10 01:09:52;;;;;;;17.03;13.40;;;2.50;99.90;;;;;;5071055;28;20587;-78
2020/12/10 01:12:18;;;;;;;16.73;11.23;;;2.50;99.90;;;;;;5072342;28;20219;-78
2020/12/10 01:14:43;;;;;;;16.50;11.90;;;2.50;99.90;;;;;;5036464;28;20571;-78
2020/12/10 01:17:09;;;;;;;15.83;11.30;;;2.50;99.90;;;;;;5054812;28;21029;-78
2020/12/10 01:19:35;;;;;;;18.13;13.10;;;2.50;99.90;;;;;;5069968;28;20195;-79
2020/12/10 01:22:01;;;;;;;12.23;9.60;;;2.50;99.90;;;;;;5038469;28;20667;-79
2020/12/10 01:24:27;;;;;;;14.52;10.50;;;2.50;99.90;;;;;;5071110;28;20188;-79
2020/12/10 01:26:53;;;;;;;14.23;11.07;;;2.50;99.90;;;;;;5072898;28;20697;-79
2020/12/10 01:29:20;;;;;;;17.00;11.73;;;2.50;99.90;;;;;;5052368;28;20215;-79
2020/12/10 01:31:50;;;;;;;15.32;11.77;;;2.40;99.90;;;;;;5072620;28;20169;-79
2020/12/10 01:34:17;;;;;;;13.93;11.45;;;2.40;99.90;;;;;;5070894;28;20547;-79
2020/12/10 01:36:43;;;;;;;12.77;8.93;;;2.40;99.90;;;;;;5056323;28;20763;-80
2020/12/10 01:39:09;;;;;;;12.73;9.80;;;2.40;99.90;;;;;;5074738;28;20226;-80
2020/12/10 01:41:35;;;;;;;16.90;11.90;;;2.40;99.90;;;;;;5038020;28;20599;-80
2020/12/10 01:44:05;;;;;;;15.60;11.20;;;2.40;99.90;;;;;;5053010;28;20570;-80
2020/12/10 01:46:31;;;;;;;13.73;10.50;;;2.40;99.90;;;;;;5072950;28;20555;-81
2020/12/10 01:48:57;;;;;;;13.45;10.75;;;2.40;99.90;;;;;;5052292;28;20176;-80
2020/12/10 01:51:23;;;;;;;15.67;11.43;;;2.30;99.90;;;;;;5071930;28;20192;-80
2020/12/10 01:53:49;;;;;;;17.25;11.88;;;2.30;99.90;;;;;;5069650;28;20570;-80
2020/12/10 01:56:17;;;;;;;17.87;13.03;;;2.30;99.90;;;;;;5054257;28;20183;-79
2020/12/10 01:58:44;;;;;;;15.98;11.60;;;2.30;99.90;;;;;;5070095;28;20618;-80
2020/12/10 02:01:10;;;;;;;16.52;10.80;;;2.30;99.90;;;;;;5073214;28;20243;-79
2020/12/10 02:03:36;;;;;;;13.10;9.68;;;2.30;99.90;;;;;;5052569;28;20179;-79
2020/12/10 02:06:02;;;;;;;14.23;12.00;;;2.30;99.90;;;;;;5053857;28;20164;-79
2020/12/10 02:08:28;;;;;;;14.50;11.37;;;2.20;99.90;;;;;;5069880;28;20642;-79
2020/12/10 02:10:54;;;;;;;19.50;12.77;;;2.20;99.90;;;;;;5071319;28;21112;-79
2020/12/10 02:13:19;;;;;;;15.73;11.43;;;2.20;99.90;;;;;;5052539;28;20574;-79
2020/12/10 02:15:49;;;;;;;13.23;10.83;;;2.20;99.90;;;;;;5057946;28;20168;-79
2020/12/10 02:18:15;;;;;;;19.92;15.10;;;2.20;99.90;;;;;;5051696;28;20622;-79
2020/12/10 02:20:43;;;;;;;18.17;13.37;;;2.20;99.90;;;;;;5053135;28;20207;-79
2020/12/10 02:23:11;;;;;;;14.48;10.75;;;2.20;99.90;;;;;;5052487;28;20584;-79
2020/12/10 02:25:38;;;;;;;14.90;9.90;;;2.20;99.90;;;;;;5075026;28;20167;-79
2020/12/10 02:28:09;;;;;;;11.82;8.15;;;2.20;99.90;;;;;;5055670;28;20164;-79
2020/12/10 02:30:35;;;;;;;15.00;11.05;;;2.20;99.90;;;;;;5075442;28;20242;-79
2020/12/10 02:33:05;;;;;;;16.23;11.97;;;2.20;99.90;;;;;;5056322;28;20165;-79
2020/12/10 02:35:32;;;;;;;16.55;13.07;;;2.20;99.90;;;;;;5075612;28;20463;-79
2020/12/10 02:38:00;;;;;;;12.70;9.85;;;2.20;99.90;;;;;;5072989;28;20192;-78
2020/12/10 02:40:29;;;;;;;14.65;10.93;;;2.20;99.90;;;;;;5074468;28;20188;-79
2020/12/10 02:42:57;;;;;;;13.50;10.48;;;2.30;99.90;;;;;;5056681;28;20560;-79
2020/12/10 02:45:23;;;;;;;19.63;11.35;;;2.30;99.90;;;;;;5057322;28;20245;-79
2020/12/10 02:47:49;;;;;;;13.93;10.32;;;2.30;99.90;;;;;;5055650;28;20187;-79
2020/12/10 02:50:16;;;;;;;14.68;10.50;;;2.30;99.90;;;;;;5056766;28;20188;-80
2020/12/10 02:52:43;;;;;;;18.52;12.60;;;2.30;99.90;;;;;;5061329;28;20263;-79
2020/12/10 02:55:09;;;;;;;13.95;10.63;;;2.30;99.90;;;;;;5056877;28;20204;-79
2020/12/10 02:57:35;;;;;;;12.68;9.32;;;2.30;99.90;;;;;;5074033;28;20168;-79
2020/12/10 03:00:03;;;;;;;15.60;10.77;;;2.40;99.90;;;;;;5073723;28;20561;-80
2020/12/10 03:02:29;;;;;;;15.50;10.70;;;2.40;99.90;;;;;;5056319;28;20168;-79
2020/12/10 03:04:55;;;;;;;15.95;11.23;;;2.30;99.90;;;;;;5055863;28;20409;-80
2020/12/10 03:07:21;;;;;;;17.27;12.10;;;2.30;99.90;;;;;;5074605;28;20164;-80
2020/12/10 03:09:47;;;;;;;13.13;9.83;;;2.30;99.90;;;;;;5073412;28;20192;-80
2020/12/10 03:12:13;;;;;;;13.30;10.38;;;2.30;99.90;;;;;;5057472;28;20570;-79
2020/12/10 03:14:39;;;;;;;19.87;13.87;;;2.30;99.90;;;;;;5056265;28;20176;-80
2020/12/10 03:17:05;;;;;;;15.17;11.53;;;2.30;99.90;;;;;;5075307;28;20555;-79
2020/12/10 03:19:32;;;;;;;15.50;11.60;;;2.30;99.90;;;;;;5073383;28;20212;-79
2020/12/10 03:21:57;;;;;;;21.55;14.18;;;2.30;99.90;;;;;;5057687;28;20179;-79
2020/12/10 03:24:23;;;;;;;21.13;14.43;;;2.30;99.90;;;;;;5056190;28;20164;-79
2020/12/10 03:26:49;;;;;;;20.63;13.53;;;2.30;99.90;;;;;;5075164;28;20642;-80
2020/12/10 03:29:15;;;;;;;15.95;13.10;;;2.30;99.90;;;;;;5076587;28;20593;-79
2020/12/10 03:31:41;;;;;;;16.40;12.13;;;2.30;99.90;;;;;;5074321;28;20734;-80
2020/12/10 03:34:07;;;;;;;15.68;12.10;;;2.30;99.90;;;;;;5055434;28;20579;-79
2020/12/10 03:36:51;;;;;;;14.00;9.93;;;2.30;99.90;;;;;;5056880;28;20192;-79
2020/12/10 03:39:18;;;;;;;14.02;9.98;;;2.20;99.90;;;;;;5054586;28;21240;-80
2020/12/10 03:41:45;;;;;;;19.27;12.30;;;2.30;99.90;;;;;;5057069;28;20533;-79
2020/12/10 03:44:11;;;;;;;16.92;11.75;;;2.30;99.90;;;;;;5073191;28;20533;-80
2020/12/10 03:46:39;;;;;;;17.42;12.70;;;2.30;99.90;;;;;;5075077;28;20161;-80
2020/12/10 03:49:09;;;;;;;14.90;10.93;;;2.30;99.90;;;;;;5056746;28;20171;-79
2020/12/10 03:51:35;;;;;;;19.38;13.75;;;2.20;99.90;;;;;;5074079;28;20196;-79
2020/12/10 03:54:01;;;;;;;17.48;12.52;;;2.20;99.90;;;;;;5054820;28;20168;-80
2020/12/10 03:56:27;;;;;;;17.13;13.55;;;2.20;99.90;;;;;;5056446;28;20175;-79
2020/12/10 03:58:53;;;;;;;14.20;10.85;;;2.30;99.90;;;;;;5071902;28;20284;-79
2020/12/10 04:01:19;;;;;;;20.20;13.20;;;2.30;99.90;;;;;;5073890;28;20215;-79
2020/12/10 04:03:45;;;;;;;25.60;16.38;;;2.30;99.90;;;;;;5073029;28;20222;-79
2020/12/10 04:06:10;;;;;;;17.77;13.10;;;2.20;99.90;;;;;;5060868;28;20164;-79
2020/12/10 04:08:37;;;;;;;17.97;11.50;;;2.20;99.90;;;;;;5072705;28;20183;-79
2020/12/10 04:11:03;;;;;;;15.25;11.00;;;2.20;99.90;;;;;;5055487;28;20610;-79
2020/12/10 04:13:36;;;;;;;19.20;14.50;;;2.20;99.90;;;;;;5072469;28;20207;-79
2020/12/10 04:16:04;;;;;;;19.10;13.00;;;2.20;99.90;;;;;;5072782;28;20176;-79
2020/12/10 04:18:30;;;;;;;18.23;12.38;;;2.20;99.90;;;;;;5071818;28;20713;-80
2020/12/10 04:20:56;;;;;;;19.33;13.82;;;2.20;99.90;;;;;;5073086;28;20669;-79
2020/12/10 04:23:22;;;;;;;20.23;14.02;;;2.20;99.90;;;;;;5054044;28;20249;-79
2020/12/10 04:25:55;;;;;;;19.23;15.30;;;2.20;99.90;;;;;;5039142;28;20208;-79
2020/12/10 04:28:21;;;;;;;14.93;11.43;;;2.20;99.90;;;;;;5053583;28;20616;-78
2020/12/10 04:30:51;;;;;;;19.92;13.73;;;2.20;99.90;;;;;;5072936;28;20238;-79
2020/12/10 04:33:17;;;;;;;17.00;12.83;;;2.20;99.90;;;;;;5054418;28;20173;-79
2020/12/10 04:35:43;;;;;;;20.33;14.57;;;2.20;99.90;;;;;;5073501;28;20577;-79
2020/12/10 04:38:09;;;;;;;17.23;13.20;;;2.20;99.90;;;;;;5071225;28;20823;-79
2020/12/10 04:40:36;;;;;;;18.25;13.00;;;2.20;99.90;;;;;;5071708;28;20196;-79
2020/12/10 04:43:08;;;;;;;20.02;13.30;;;2.20;99.90;;;;;;5068962;28;20591;-79
2020/12/10 04:45:36;;;;;;;18.60;14.23;;;2.20;99.90;;;;;;5037519;28;20172;-80
2020/12/10 04:48:03;;;;;;;19.67;13.50;;;2.20;99.90;;;;;;5071048;28;20179;-79
2020/12/10 04:50:31;;;;;;;17.70;12.10;;;2.20;99.90;;;;;;5073641;28;20605;-79
2020/12/10 04:52:57;;;;;;;19.02;13.98;;;2.20;99.90;;;;;;5068510;28;20227;-79
2020/12/10 04:55:24;;;;;;;20.90;15.23;;;2.20;99.90;;;;;;5052793;28;20223;-79
2020/12/10 04:57:52;;;;;;;20.52;14.60;;;2.10;99.90;;;;;;5033657;28;20419;-79
2020/12/10 05:00:20;;;;;;;18.10;13.00;;;2.20;99.90;;;;;;5034838;28;20200;-79
2020/12/10 05:02:47;;;;;;;16.63;12.55;;;2.10;99.90;;;;;;5034071;28;20169;-79
2020/12/10 05:05:33;;;;;;;20.35;15.05;;;2.10;99.90;;;;;;5039189;28;20538;-79
2020/12/10 05:08:01;;;;;;;19.75;14.48;;;2.10;99.90;;;;;;5070627;28;20172;-80
2020/12/10 05:10:27;;;;;;;18.33;14.38;;;2.10;99.90;;;;;;5071746;28;20195;-79
2020/12/10 05:13:06;;;;;;;18.45;13.80;;;2.20;99.90;;;;;;5053367;28;20169;-79
2020/12/10 05:15:33;;;;;;;19.05;13.43;;;2.10;99.90;;;;;;5073205;28;20164;-80
2020/12/10 05:18:13;;;;;;;16.20;12.30;;;2.10;99.90;;;;;;5053389;28;20188;-80
2020/12/10 05:20:52;;;;;;;16.98;12.25;;;2.10;99.90;;;;;;5076548;28;20259;-79
2020/12/10 05:23:37;;;;;;;18.98;13.15;;;2.20;99.90;;;;;;5070931;28;20625;-79
2020/12/10 05:26:08;;;;;;;17.08;12.10;;;2.10;99.90;;;;;;5055073;28;20512;-79
2020/12/10 05:28:45;;;;;;;17.70;12.65;;;2.20;99.90;;;;;;5069181;28;20176;-79
2020/12/10 05:31:13;;;;;;;20.20;14.20;;;2.20;99.90;;;;;;5072858;28;20204;-80
2020/12/10 05:33:56;;;;;;;17.48;12.82;;;2.20;99.90;;;;;;5074099;28;20267;-80
2020/12/10 05:36:23;;;;;;;14.75;13.00;;;2.20;99.90;;;;;;5054857;28;20184;-79
2020/12/10 05:39:05;;;;;;;20.02;13.50;;;2.20;99.90;;;;;;5070216;28;20713;-79
2020/12/10 05:41:33;;;;;;;15.35;12.20;;;2.20;99.90;;;;;;5072738;28;20199;-79
2020/12/10 05:44:16;;;;;;;18.65;12.35;;;2.20;99.90;;;;;;5070737;28;20199;-79
2020/12/10 05:46:42;;;;;;;19.52;13.50;;;2.20;99.90;;;;;;5072879;28;20167;-80
2020/12/10 05:49:10;;;;;;;19.35;14.45;;;2.20;99.90;;;;;;5052414;28;20177;-79
2020/12/10 05:51:47;;;;;;;19.88;14.38;;;2.20;99.90;;;;;;5037050;28;20208;-78
2020/12/10 05:54:18;;;;;;;20.55;15.70;;;2.20;99.90;;;;;;5071127;28;20648;-79
2020/12/10 05:56:57;;;;;;;19.48;14.50;;;2.20;99.90;;;;;;5055130;28;20175;-79
2020/12/10 05:59:30;;;;;;;20.48;14.00;;;2.20;99.90;;;;;;5038750;28;20184;-79
2020/12/10 06:02:07;;;;;;;16.40;12.57;;;2.20;99.90;;;;;;5054005;28;20219;-79
2020/12/10 06:04:33;;;;;;;18.98;14.23;;;2.20;99.90;;;;;;5052578;28;20164;-79
2020/12/10 06:07:01;;;;;;;18.10;12.77;;;2.20;99.90;;;;;;5071460;28;20279;-79
2020/12/10 06:09:28;;;;;;;20.13;13.13;;;2.20;99.90;;;;;;5069922;28;20172;-78
2020/12/10 06:12:05;;;;;;;21.30;15.40;;;2.20;99.90;;;;;;5036747;28;20176;-79
2020/12/10 06:14:32;;;;;;;19.63;15.15;;;2.20;99.90;;;;;;5070436;28;20179;-79
2020/12/10 06:17:08;;;;;;;22.58;15.20;;;2.20;99.90;;;;;;5071190;28;20172;-79
2020/12/10 06:19:35;;;;;;;23.02;16.67;;;2.20;99.90;;;;;;5070292;28;20615;-84
2020/12/10 06:22:25;;;;;;;25.77;16.65;;;2.20;99.90;;;;;;5053869;28;20165;-85
2020/12/10 06:24:51;;;;;;;21.52;14.75;;;2.20;99.90;;;;;;5071199;28;20603;-86
2020/12/10 06:27:27;;;;;;;21.30;15.57;;;2.20;99.90;;;;;;5072530;28;20581;-86
2020/12/10 06:30:15;;;;;;;20.48;15.40;;;2.20;99.90;;;;;;5071126;28;20192;-87
2020/12/10 06:32:46;;;;;;;18.38;13.70;;;2.30;99.90;;;;;;5053967;28;20199;-87
2020/12/10 06:35:29;;;;;;;24.17;16.83;;;2.30;99.90;;;;;;5057249;28;20167;-87
2020/12/10 06:41:06;;;;;;;24.17;17.48;;;2.30;99.90;;;;;;5029417;28;20264;-86
2020/12/10 06:44:00;;;;;;;20.55;14.68;;;2.30;99.90;;;;;;5034652;28;20681;-85
2020/12/10 06:47:41;;;;;;;21.55;14.32;;;2.30;99.90;;;;;;5011294;28;20188;-84
2020/12/10 06:50:37;;;;;;;18.23;13.50;;;2.30;99.90;;;;;;5015413;28;20238;-85
2020/12/10 06:53:30;;;;;;;16.15;12.60;;;2.30;99.90;;;;;;5005453;28;20169;-84
2020/12/10 06:56:11;;;;;;;21.13;14.20;;;2.30;99.90;;;;;;5040458;28;20204;-86
2020/12/10 06:58:45;;;;;;;15.77;12.35;;;2.30;99.90;;;;;;5016874;28;20212;-85
2020/12/10 07:01:40;;;;;;;20.08;13.75;;;2.30;99.90;;;;;;5037628;28;20191;-85
2020/12/10 07:08:35;;;;;;;21.80;15.43;;;2.30;99.90;;;;;;4989187;28;20266;-84
2020/12/10 07:11:10;;;;;;;20.83;16.45;;;2.30;99.90;;;;;;5010418;28;20914;-84
2020/12/10 07:13:50;;;;;;;17.48;13.60;;;2.30;99.90;;;;;;5023944;28;20216;-83
2020/12/10 07:16:31;;;;;;;18.15;12.95;;;2.30;99.90;;;;;;5022246;28;20173;-83
2020/12/10 07:18:58;;;;;;;18.13;12.55;;;2.30;99.90;;;;;;5036517;28;20220;-84
2020/12/10 07:21:24;;;;;;;23.13;14.98;;;2.30;99.90;;;;;;5023825;28;20209;-83
2020/12/10 07:23:51;;;;;;;18.52;14.25;;;2.30;99.90;;;;;;5020326;28;20169;-83
2020/12/10 07:26:17;;;;;;;20.08;14.60;;;2.30;99.90;;;;;;5039401;28;20161;-84
2020/12/10 07:28:48;;;;;;;16.58;13.35;;;2.30;99.90;;;;;;5020240;28;20172;-84
2020/12/10 07:31:23;;;;;;;19.33;13.90;;;2.30;99.90;;;;;;5039194;28;20200;-83
2020/12/10 07:33:57;;;;;;;17.15;12.63;;;2.30;99.90;;;;;;5039507;28;20181;-83
2020/12/10 07:36:29;;;;;;;23.70;15.75;;;2.30;99.90;;;;;;5059917;28;20196;-82
2020/12/10 07:39:03;;;;;;;15.98;12.85;;;2.40;99.90;;;;;;5076447;28;20315;-82
2020/12/10 07:41:39;;;;;;;23.75;14.45;;;2.40;99.90;;;;;;5059964;28;20215;-82
2020/12/10 07:44:07;;;;;;;18.48;13.15;;;2.40;99.90;;;;;;5061580;28;20188;-82
2020/12/10 07:46:44;;;;;;;16.63;13.38;;;2.30;99.90;;;;;;5063226;28;20180;-82
2020/12/10 07:53:14;;;;;;;;;;;;;;;;;;;;;
2020/12/10 07:56:03;;;;;;;16.20;11.95;;;2.40;99.90;;;;;;5017194;28;20219;-81
2020/12/10 07:59:08;;;;;;;13.60;11.63;;;2.40;99.90;;;;;;5015317;28;20242;-82
2020/12/10 08:01:49;;;;;;;13.43;11.38;;;2.40;99.90;;;;;;5038484;28;20202;-82
2020/12/10 08:04:27;;;;;;;16.20;12.00;;;2.50;99.90;;;;;;5079293;28;20195;-82
2020/12/10 08:07:12;;;;;;;18.17;11.52;;;2.50;99.90;;;;;;5091921;28;20517;-83
2020/12/10 08:09:54;;;;;;;17.83;12.07;;;2.50;99.90;;;;;;5065603;28;20192;-83
2020/12/10 08:12:41;;;;;;;18.70;14.02;;;2.50;99.90;;;;;;5061966;28;20290;-82
2020/12/10 08:23:39;;;;;;;24.17;17.40;;;2.50;99.90;;;;;;5075086;28;20203;-82
2020/12/10 08:30:42;;;;;;;17.75;12.80;;;2.60;99.90;;;;;;5075339;28;20198;-80
2020/12/10 08:34:39;;;;;;;;;;;;;;;;;;;;;
2020/12/10 08:38:31;;;;;;;22.30;15.32;;;2.60;99.90;;;;;;4971267;28;20616;-80
2020/12/10 08:46:09;;;;;;;17.08;13.93;;;2.70;99.90;;;;;;4991127;28;20684;-82
2020/12/10 08:50:08;;;;;;;20.30;15.13;;;2.80;99.90;;;;;;4919278;28;20593;-82
2020/12/10 08:54:49;;;;;;;;;;;;;;;;;;;;;
2020/12/10 08:58:32;;;;;;;;;;;;;;;;;;;;;
2020/12/10 09:05:15;;;;;;;20.95;17.08;;;3.00;99.90;;;;;;5058446;28;20169;-81
2020/12/10 09:11:22;;;;;;;18.02;14.20;;;3.00;99.90;;;;;;5035630;28;20193;-81
2020/12/10 09:14:02;;;;;;;23.42;15.18;;;3.00;99.90;;;;;;5056905;28;20603;-81
2020/12/10 09:17:03;;;;;;;18.67;14.40;;;3.10;99.90;;;;;;5056239;28;20609;-81
2020/12/10 09:20:25;;;;;;;17.92;12.65;;;3.10;99.90;;;;;;5039747;28;20244;-81
2020/12/10 09:23:53;;;;;;;18.80;14.57;;;3.20;99.90;;;;;;5055335;28;20246;-81
2020/12/10 09:26:57;;;;;;;17.52;11.65;;;3.20;99.90;;;;;;5056386;28;20698;-81
2020/12/10 09:29:30;;;;;;;17.13;11.35;;;3.30;99.90;;;;;;5053468;28;20502;-81
2020/12/10 09:32:39;;;;;;;15.45;11.50;;;3.30;99.90;;;;;;5057325;28;20173;-81
2020/12/10 09:39:36;;;;;;;;;;;;;;;;;;;;;
2020/12/10 09:42:31;;;;;;;17.48;11.60;;;3.50;99.90;;;;;;5081597;28;20176;-81
2020/12/10 09:48:21;;;;;;;14.20;10.13;;;3.60;99.90;;;;;;5050655;28;20180;-81
2020/12/10 09:51:06;;;;;;;14.02;11.68;;;3.60;99.90;;;;;;5057925;28;20270;-80
2020/12/10 09:53:46;;;;;;;17.45;12.45;;;3.70;99.90;;;;;;5054123;28;20180;-83
2020/12/10 09:58:44;;;;;;;14.77;11.95;;;3.70;99.90;;;;;;5052043;28;20302;-81
2020/12/10 10:01:13;;;;;;;17.10;11.20;;;3.70;99.90;;;;;;5055247;28;20192;-79
2020/12/10 10:03:39;;;;;;;14.20;11.15;;;3.80;99.90;;;;;;5036348;28;20164;-80
2020/12/10 10:06:05;;;;;;;13.47;10.10;;;3.80;99.90;;;;;;5073704;28;20234;-80
2020/12/10 10:08:32;;;;;;;15.35;11.77;;;3.90;99.90;;;;;;5070801;28;20570;-81
2020/12/10 10:10:58;;;;;;;15.05;11.77;;;4.00;99.90;;;;;;5052924;28;20636;-81
2020/12/10 10:13:24;;;;;;;14.27;11.93;;;4.00;99.90;;;;;;5071487;28;20931;-81
2020/12/10 10:15:50;;;;;;;12.73;9.52;;;3.90;99.90;;;;;;5061428;28;20185;-79
2020/12/10 10:18:16;;;;;;;12.23;9.80;;;4.00;99.90;;;;;;5063514;28;20264;-81
2020/12/10 10:20:43;;;;;;;14.82;11.25;;;4.00;99.90;;;;;;5050406;28;20192;-77
2020/12/10 10:23:09;;;;;;;19.40;12.13;;;4.10;99.90;;;;;;5082829;28;20634;-83
2020/12/10 10:25:35;;;;;;;12.73;9.30;;;4.20;99.90;;;;;;5085680;28;20172;-78
2020/12/10 10:28:01;;;;;;;13.53;10.87;;;4.20;99.90;;;;;;5066055;28;20180;-79
2020/12/10 10:30:27;;;;;;;11.93;9.23;;;4.30;99.90;;;;;;5084663;28;20234;-77
2020/12/10 10:32:53;;;;;;;11.50;9.32;;;4.30;99.90;;;;;;5084941;28;20161;-78
2020/12/10 10:35:20;;;;;;;11.50;8.03;;;4.30;99.90;;;;;;5060237;28;20172;-78
2020/12/10 10:37:47;;;;;;;11.50;8.52;;;4.40;99.90;;;;;;5072422;28;20674;-78
2020/12/10 10:40:14;;;;;;;16.98;13.10;;;4.40;99.90;;;;;;5073412;28;20263;-78
2020/12/10 10:42:40;;;;;;;16.73;12.05;;;4.30;99.90;;;;;;5072332;28;20664;-78
2020/12/10 10:45:09;;;;;;;14.48;11.10;;;4.40;99.90;;;;;;5072020;28;20183;-78
2020/12/10 10:47:35;;;;;;;13.82;10.60;;;4.40;99.90;;;;;;5074064;28;20180;-79
2020/12/10 10:50:00;;;;;;;9.20;8.00;;;4.40;99.90;;;;;;5056722;28;20272;-78
2020/12/10 10:52:27;;;;;;;13.63;10.25;;;4.40;99.90;;;;;;5044231;28;20586;-79
2020/12/10 10:54:52;;;;;;;13.63;9.40;;;4.40;99.90;;;;;;5074273;28;20253;-79
2020/12/10 10:57:18;;;;;;;13.63;11.30;;;4.50;99.90;;;;;;5060693;28;20661;-79
2020/12/10 10:59:44;;;;;;;11.17;9.00;;;4.60;99.90;;;;;;5073654;28;21049;-79
2020/12/10 11:02:10;;;;;;;15.53;11.90;;;4.60;99.90;;;;;;5061537;28;20602;-78
2020/12/10 11:04:36;;;;;;;17.13;11.87;;;4.70;99.90;;;;;;5053288;28;20571;-79
2020/12/10 11:07:01;;;;;;;17.03;10.97;;;4.60;99.90;;;;;;5055116;28;21023;-79
2020/12/10 11:09:27;;;;;;;15.77;11.90;;;4.60;99.90;;;;;;5052177;28;20308;-81
2020/12/10 11:11:54;;;;;;;11.77;9.87;;;4.60;99.90;;;;;;5042126;28;20201;-78
2020/12/10 11:14:20;;;;;;;13.07;10.50;;;4.70;99.90;;;;;;5092157;28;20176;-79
2020/12/10 11:16:56;;;;;;;13.52;11.20;;;4.70;99.90;;;;;;5076591;28;20588;-83
2020/12/10 11:19:23;;;;;;;12.57;10.95;;;4.80;99.90;;;;;;5074035;28;20261;-79
2020/12/10 11:21:48;;;;;;;13.25;10.32;;;4.80;99.90;;;;;;5093231;28;20235;-79
2020/12/10 11:24:14;;;;;;;14.38;12.77;;;4.90;99.90;;;;;;5074069;28;20250;-78
2020/12/10 11:26:40;;;;;;;18.67;11.20;;;4.80;99.90;;;;;;5095089;28;20587;-85
2020/12/10 11:29:06;;;;;;;11.63;9.90;;;4.90;99.90;;;;;;5058458;28;20172;-81
2020/12/10 11:31:31;;;;;;;15.40;11.50;;;5.00;99.90;;;;;;5074292;28;20184;-81
2020/12/10 11:33:57;;;;;;;10.83;9.60;;;5.00;99.90;;;;;;5078199;28;21119;-82
2020/12/10 11:36:23;;;;;;;12.37;8.40;;;5.20;99.90;;;;;;5075069;28;20251;-83
2020/12/10 11:38:49;;;;;;;11.80;9.70;;;5.20;99.90;;;;;;5037458;28;20231;-80
2020/12/10 11:41:19;;;;;;;10.13;8.03;;;5.30;99.90;;;;;;5074260;28;20238;-80
2020/12/10 11:43:45;;;;;;;13.23;7.20;;;5.40;99.90;;;;;;5072923;28;20161;-81
2020/12/10 11:46:11;;;;;;;12.93;9.43;;;5.50;99.90;;;;;;5056304;28;20685;-82
2020/12/10 11:48:36;;;;;;;9.13;7.60;;;5.60;99.90;;;;;;5072148;28;20596;-81
2020/12/10 11:51:02;;;;;;;10.83;7.20;;;5.70;99.90;;;;;;5074138;28;20675;-81
2020/12/10 11:53:33;;;;;;;8.80;7.90;;;5.80;99.90;;;;;;5071040;28;20541;-80
2020/12/10 11:55:59;;;;;;;13.95;9.45;;;5.80;99.90;;;;;;5075355;28;20583;-81
2020/12/10 11:58:25;;;;;;;9.77;7.40;;;5.80;99.90;;;;;;5084350;28;20199;-81
2020/12/10 12:00:51;;;;;;;10.20;8.33;;;5.80;99.90;;;;;;5073567;28;20241;-80
2020/12/10 12:03:16;;;;;;;12.20;9.50;;;5.80;99.90;;;;;;5054955;28;20255;-79
2020/12/10 12:05:42;;;;;;;9.90;8.27;;;5.80;99.90;;;;;;5055844;28;20179;-79
2020/12/10 12:08:08;;;;;;;9.67;8.13;;;5.80;99.90;;;;;;5053764;28;20175;-80
2020/12/10 12:10:33;;;;;;;9.30;8.30;;;5.80;99.90;;;;;;5079132;28;20192;-82
2020/12/10 12:12:59;;;;;;;9.53;8.40;;;5.80;99.90;;;;;;5076531;28;20183;-81
2020/12/10 12:15:25;;;;;;;9.83;8.30;;;5.80;99.90;;;;;;5082045;28;20172;-81
2020/12/10 12:17:51;;;;;;;9.30;7.50;;;5.90;99.90;;;;;;5071512;28;20184;-81
2020/12/10 12:20:17;;;;;;;13.67;10.50;;;5.90;99.90;;;;;;5072718;28;21290;-79
2020/12/10 12:22:42;;;;;;;8.00;7.20;;;5.90;99.90;;;;;;5055197;28;20172;-78
2020/12/10 12:25:08;;;;;;;8.60;7.70;;;6.00;99.90;;;;;;5072664;28;20613;-79
2020/12/10 12:27:35;;;;;;;9.73;7.90;;;6.00;99.90;;;;;;5072412;28;20180;-79
2020/12/10 12:30:02;;;;;;;13.13;10.75;;;6.00;99.90;;;;;;5071533;28;20208;-80
2020/12/10 12:32:28;;;;;;;9.38;8.50;;;6.00;99.90;;;;;;5054621;28;20180;-80
2020/12/10 12:34:54;;;;;;;8.47;7.27;;;6.00;99.90;;;;;;5072684;28;20184;-78
2020/12/10 12:37:19;;;;;;;12.03;8.50;;;6.00;99.90;;;;;;5057194;28;20232;-83
2020/12/10 12:39:45;;;;;;;10.30;6.80;;;5.90;99.90;;;;;;5071844;28;20208;-81
2020/12/10 12:42:11;;;;;;;9.00;7.97;;;5.90;99.90;;;;;;5072805;28;20179;-77
2020/12/10 12:44:37;;;;;;;9.07;8.02;;;5.90;99.90;;;;;;5070883;28;20947;-78
2020/12/10 12:47:06;;;;;;;9.83;7.50;;;5.90;99.90;;;;;;5075761;28;20172;-78
2020/12/10 12:49:33;;;;;;;9.23;7.93;;;5.90;99.90;;;;;;5085274;28;20196;-78
2020/12/10 12:51:59;;;;;;;8.95;7.20;;;5.90;99.90;;;;;;5072015;28;20188;-78
2020/12/10 12:54:25;;;;;;;8.23;7.40;;;5.90;99.90;;;;;;5071179;28;20188;-78
2020/12/10 12:56:51;;;;;;;6.78;6.07;;;5.80;99.90;;;;;;5072492;28;20183;-76
2020/12/10 12:59:18;;;;;;;8.67;7.63;;;5.80;99.90;;;;;;5052116;28;20731;-77
2020/12/10 13:01:44;;;;;;;8.77;7.53;;;5.80;99.90;;;;;;5071826;28;20643;-77
2020/12/10 13:04:14;;;;;;;7.50;6.57;;;5.80;99.90;;;;;;5071282;28;20697;-77
2020/12/10 13:06:45;;;;;;;7.13;6.43;;;5.70;99.90;;;;;;5071686;28;20603;-77
2020/12/10 13:09:10;;;;;;;8.88;7.38;;;5.80;99.90;;;;;;5070067;28;20206;-77
2020/12/10 13:11:37;;;;;;;10.00;6.77;;;5.80;99.90;;;;;;5072558;28;20311;-78
2020/12/10 13:14:04;;;;;;;9.88;7.05;;;5.80;99.90;;;;;;5072133;28;20249;-81
2020/12/10 13:16:29;;;;;;;12.40;6.45;;;5.80;99.90;;;;;;5072808;28;20182;-79
2020/12/10 13:18:55;;;;;;;9.87;7.00;;;5.80;99.90;;;;;;5075426;28;20207;-78
2020/12/10 13:21:24;;;;;;;8.30;6.77;;;5.80;99.90;;;;;;5055241;28;20212;-79
2020/12/10 13:23:51;;;;;;;10.00;6.20;;;5.90;99.90;;;;;;5055552;28;20589;-78
2020/12/10 13:26:28;;;;;;;14.60;6.93;;;5.80;99.90;;;;;;5070677;28;20261;-79
2020/12/10 13:28:54;;;;;;;9.43;7.55;;;5.80;99.90;;;;;;5082629;28;20175;-79
2020/12/10 13:31:34;;;;;;;14.57;10.40;;;5.90;99.90;;;;;;5087839;28;20594;-79
2020/12/10 13:34:03;;;;;;;11.23;8.55;;;5.80;99.90;;;;;;5071102;28;20182;-79
2020/12/10 13:36:29;;;;;;;9.57;8.35;;;5.80;99.90;;;;;;5073061;28;20184;-78
2020/12/10 13:38:55;;;;;;;8.65;7.68;;;5.80;99.90;;;;;;5070442;28;20279;-76
2020/12/10 13:41:22;;;;;;;6.68;5.90;;;5.80;99.90;;;;;;5075974;28;20188;-79
2020/12/10 13:43:49;;;;;;;9.95;7.55;;;5.80;99.90;;;;;;5079451;28;20168;-80
2020/12/10 13:46:15;;;;;;;10.02;8.40;;;5.80;99.90;;;;;;5072394;28;20173;-79
2020/12/10 13:48:42;;;;;;;11.15;8.73;;;5.80;99.90;;;;;;5070520;28;20230;-79
2020/12/10 13:51:09;;;;;;;8.45;6.65;;;5.70;99.90;;;;;;5072183;28;20196;-80
2020/12/10 13:53:35;;;;;;;9.80;7.07;;;5.70;99.90;;;;;;5071659;28;20180;-81
2020/12/10 13:56:01;;;;;;;8.80;7.30;;;5.70;99.90;;;;;;5055353;28;20215;-82